sensor_id;sensor_type;location;lat;lon;timestamp;P1;durP1;ratioP1;P2;durP2;ratioP2
57565;SDS011;63999;43.882;-0.310;2023-07-02T00:00:30;16.95;;;9.52;;
57565;SDS011;63999;43.882;-0.310;2023-07-02T00:02:55;14.98;;;8.50;;
57565;SDS011;63999;43.882;-0.310;2023-07-02T00:05:22;17.80;;;8.73;;
57565;SDS011;63999;43.882;-0.310;2023-07-02T00:07:48;13.88;;;8.90;;
57565;SDS011;63999;43.882;-0.310;2023-07-02T00:10:13;14.73;;;9.25;;
57565;SDS011;63999;43.882;-0.310;2023-07-02T00:12:39;13.70;;;8.65;;
57565;SDS011;63999;43.882;-0.310;2023-07-02T00:15:05;15.68;;;8.68;;
57565;SDS011;63999;43.882;-0.310;2023-07-02T00:17:31;14.98;;;8.30;;
57565;SDS011;63999;43.882;-0.310;2023-07-02T00:19:57;18.05;;;9.32;;
57565;SDS011;63999;43.882;-0.310;2023-07-02T00:22:27;15.30;;;9.52;;
57565;SDS011;63999;43.882;-0.310;2023-07-02T00:24:53;14.27;;;9.38;;
57565;SDS011;63999;43.882;-0.310;2023-07-02T00:27:20;16.48;;;9.30;;
57565;SDS011;63999;43.882;-0.310;2023-07-02T00:29:46;13.70;;;8.85;;
57565;SDS011;63999;43.882;-0.310;2023-07-02T00:32:12;14.68;;;9.05;;
57565;SDS011;63999;43.882;-0.310;2023-07-02T00:34:38;15.80;;;9.05;;
57565;SDS011;63999;43.882;-0.310;2023-07-02T00:37:03;17.65;;;9.20;;
57565;SDS011;63999;43.882;-0.310;2023-07-02T00:39:29;15.70;;;9.93;;
57565;SDS011;63999;43.882;-0.310;2023-07-02T00:41:59;19.98;;;10.05;;
57565;SDS011;63999;43.882;-0.310;2023-07-02T00:44:27;16.45;;;9.98;;
57565;SDS011;63999;43.882;-0.310;2023-07-02T00:46:53;17.90;;;10.18;;
57565;SDS011;63999;43.882;-0.310;2023-07-02T00:49:19;14.35;;;9.95;;
57565;SDS011;63999;43.882;-0.310;2023-07-02T00:51:45;18.65;;;10.52;;
57565;SDS011;63999;43.882;-0.310;2023-07-02T00:54:11;17.38;;;10.18;;
57565;SDS011;63999;43.882;-0.310;2023-07-02T00:56:37;18.55;;;11.50;;
57565;SDS011;63999;43.882;-0.310;2023-07-02T00:59:03;16.83;;;10.85;;
57565;SDS011;63999;43.882;-0.310;2023-07-02T01:01:28;17.42;;;10.77;;
57565;SDS011;63999;43.882;-0.310;2023-07-02T01:03:58;23.13;;;11.73;;
57565;SDS011;63999;43.882;-0.310;2023-07-02T01:06:29;19.55;;;11.02;;
57565;SDS011;63999;43.882;-0.310;2023-07-02T01:09:00;16.23;;;10.75;;
57565;SDS011;63999;43.882;-0.310;2023-07-02T01:11:41;18.10;;;11.27;;
57565;SDS011;63999;43.882;-0.310;2023-07-02T01:16:41;16.23;;;10.95;;
57565;SDS011;63999;43.882;-0.310;2023-07-02T01:19:12;18.17;;;11.80;;
57565;SDS011;63999;43.882;-0.310;2023-07-02T01:21:44;17.33;;;10.70;;
57565;SDS011;63999;43.882;-0.310;2023-07-02T01:24:11;16.27;;;9.60;;
57565;SDS011;63999;43.882;-0.310;2023-07-02T01:26:39;14.95;;;9.40;;
57565;SDS011;63999;43.882;-0.310;2023-07-02T01:29:18;12.30;;;8.77;;
57565;SDS011;63999;43.882;-0.310;2023-07-02T01:31:45;15.18;;;8.52;;
57565;SDS011;63999;43.882;-0.310;2023-07-02T01:34:12;15.52;;;7.68;;
57565;SDS011;63999;43.882;-0.310;2023-07-02T01:36:38;12.10;;;7.60;;
57565;SDS011;63999;43.882;-0.310;2023-07-02T01:39:04;12.43;;;7.78;;
57565;SDS011;63999;43.882;-0.310;2023-07-02T01:41:31;12.07;;;7.13;;
57565;SDS011;63999;43.882;-0.310;2023-07-02T01:44:03;15.25;;;7.35;;
57565;SDS011;63999;43.882;-0.310;2023-07-02T01:46:29;13.50;;;7.25;;
57565;SDS011;63999;43.882;-0.310;2023-07-02T01:48:55;14.05;;;7.72;;
57565;SDS011;63999;43.882;-0.310;2023-07-02T01:51:20;12.00;;;6.68;;
57565;SDS011;63999;43.882;-0.310;2023-07-02T01:53:46;11.20;;;7.40;;
57565;SDS011;63999;43.882;-0.310;2023-07-02T01:56:12;12.25;;;7.38;;
57565;SDS011;63999;43.882;-0.310;2023-07-02T01:58:38;15.05;;;7.40;;
57565;SDS011;63999;43.882;-0.310;2023-07-02T02:01:03;10.73;;;6.85;;
57565;SDS011;63999;43.882;-0.310;2023-07-02T02:03:29;11.77;;;7.20;;
57565;SDS011;63999;43.882;-0.310;2023-07-02T02:05:55;13.30;;;7.60;;
57565;SDS011;63999;43.882;-0.310;2023-07-02T02:08:21;14.07;;;6.95;;
57565;SDS011;63999;43.882;-0.310;2023-07-02T02:10:46;10.95;;;7.30;;
57565;SDS011;63999;43.882;-0.310;2023-07-02T02:13:12;12.98;;;7.15;;
57565;SDS011;63999;43.882;-0.310;2023-07-02T02:15:38;15.30;;;8.40;;
57565;SDS011;63999;43.882;-0.310;2023-07-02T02:18:03;15.30;;;7.65;;
57565;SDS011;63999;43.882;-0.310;2023-07-02T02:20:30;14.38;;;7.55;;
57565;SDS011;63999;43.882;-0.310;2023-07-02T02:22:56;15.15;;;7.47;;
57565;SDS011;63999;43.882;-0.310;2023-07-02T02:25:21;11.20;;;6.72;;
57565;SDS011;63999;43.882;-0.310;2023-07-02T02:27:47;12.40;;;7.20;;
57565;SDS011;63999;43.882;-0.310;2023-07-02T02:30:13;10.55;;;6.32;;
57565;SDS011;63999;43.882;-0.310;2023-07-02T02:32:39;13.27;;;6.85;;
57565;SDS011;63999;43.882;-0.310;2023-07-02T02:35:04;10.60;;;6.97;;
57565;SDS011;63999;43.882;-0.310;2023-07-02T02:37:32;11.30;;;6.82;;
57565;SDS011;63999;43.882;-0.310;2023-07-02T02:39:59;15.68;;;6.88;;
57565;SDS011;63999;43.882;-0.310;2023-07-02T02:42:25;12.13;;;6.53;;
57565;SDS011;63999;43.882;-0.310;2023-07-02T02:44:51;10.68;;;6.53;;
57565;SDS011;63999;43.882;-0.310;2023-07-02T02:47:17;11.15;;;6.50;;
57565;SDS011;63999;43.882;-0.310;2023-07-02T02:49:42;9.93;;;7.00;;
57565;SDS011;63999;43.882;-0.310;2023-07-02T02:52:08;10.80;;;6.43;;
57565;SDS011;63999;43.882;-0.310;2023-07-02T02:54:34;11.88;;;6.63;;
57565;SDS011;63999;43.882;-0.310;2023-07-02T02:57:00;12.88;;;7.05;;
57565;SDS011;63999;43.882;-0.310;2023-07-02T02:59:25;11.60;;;6.82;;
57565;SDS011;63999;43.882;-0.310;2023-07-02T03:01:51;12.90;;;6.90;;
57565;SDS011;63999;43.882;-0.310;2023-07-02T03:04:17;11.18;;;6.35;;
57565;SDS011;63999;43.882;-0.310;2023-07-02T03:06:43;9.63;;;6.20;;
57565;SDS011;63999;43.882;-0.310;2023-07-02T03:09:08;9.10;;;5.97;;
57565;SDS011;63999;43.882;-0.310;2023-07-02T03:11:34;17.58;;;6.72;;
57565;SDS011;63999;43.882;-0.310;2023-07-02T03:14:00;11.02;;;7.25;;
57565;SDS011;63999;43.882;-0.310;2023-07-02T03:16:25;11.57;;;6.78;;
57565;SDS011;63999;43.882;-0.310;2023-07-02T03:18:51;10.73;;;6.38;;
57565;SDS011;63999;43.882;-0.310;2023-07-02T03:21:17;12.77;;;6.60;;
57565;SDS011;63999;43.882;-0.310;2023-07-02T03:23:42;14.65;;;6.93;;
57565;SDS011;63999;43.882;-0.310;2023-07-02T03:26:09;12.52;;;6.60;;
57565;SDS011;63999;43.882;-0.310;2023-07-02T03:28:35;12.52;;;6.47;;
57565;SDS011;63999;43.882;-0.310;2023-07-02T03:31:01;12.93;;;6.47;;
57565;SDS011;63999;43.882;-0.310;2023-07-02T03:33:27;13.25;;;6.57;;
57565;SDS011;63999;43.882;-0.310;2023-07-02T03:35:53;9.85;;;6.50;;
57565;SDS011;63999;43.882;-0.310;2023-07-02T03:38:18;11.05;;;6.43;;
57565;SDS011;63999;43.882;-0.310;2023-07-02T03:40:44;15.35;;;6.43;;
57565;SDS011;63999;43.882;-0.310;2023-07-02T03:43:10;9.77;;;6.03;;
57565;SDS011;63999;43.882;-0.310;2023-07-02T03:45:36;13.00;;;6.50;;
57565;SDS011;63999;43.882;-0.310;2023-07-02T03:48:01;12.45;;;6.18;;
57565;SDS011;63999;43.882;-0.310;2023-07-02T03:50:27;10.85;;;5.90;;
57565;SDS011;63999;43.882;-0.310;2023-07-02T03:52:53;8.13;;;5.43;;
57565;SDS011;63999;43.882;-0.310;2023-07-02T03:55:19;16.17;;;6.22;;
57565;SDS011;63999;43.882;-0.310;2023-07-02T03:57:45;8.32;;;5.57;;
57565;SDS011;63999;43.882;-0.310;2023-07-02T04:00:11;8.93;;;5.25;;
57565;SDS011;63999;43.882;-0.310;2023-07-02T04:02:37;13.82;;;6.43;;
57565;SDS011;63999;43.882;-0.310;2023-07-02T04:05:03;10.27;;;5.75;;
57565;SDS011;63999;43.882;-0.310;2023-07-02T04:07:29;10.40;;;6.18;;
57565;SDS011;63999;43.882;-0.310;2023-07-02T04:09:55;12.50;;;6.32;;
57565;SDS011;63999;43.882;-0.310;2023-07-02T04:12:21;9.15;;;5.40;;
57565;SDS011;63999;43.882;-0.310;2023-07-02T04:14:46;11.57;;;5.95;;
57565;SDS011;63999;43.882;-0.310;2023-07-02T04:17:12;8.27;;;5.18;;
57565;SDS011;63999;43.882;-0.310;2023-07-02T04:19:38;11.73;;;6.15;;
57565;SDS011;63999;43.882;-0.310;2023-07-02T04:22:04;11.00;;;5.80;;
57565;SDS011;63999;43.882;-0.310;2023-07-02T04:24:30;14.60;;;5.78;;
57565;SDS011;63999;43.882;-0.310;2023-07-02T04:26:55;9.85;;;5.55;;
57565;SDS011;63999;43.882;-0.310;2023-07-02T04:29:21;10.07;;;5.70;;
57565;SDS011;63999;43.882;-0.310;2023-07-02T04:31:47;10.13;;;5.38;;
57565;SDS011;63999;43.882;-0.310;2023-07-02T04:34:13;11.10;;;5.82;;
57565;SDS011;63999;43.882;-0.310;2023-07-02T04:36:38;8.00;;;4.95;;
57565;SDS011;63999;43.882;-0.310;2023-07-02T04:39:04;9.98;;;5.85;;
57565;SDS011;63999;43.882;-0.310;2023-07-02T04:41:30;7.10;;;4.45;;
57565;SDS011;63999;43.882;-0.310;2023-07-02T04:43:56;10.57;;;5.45;;
57565;SDS011;63999;43.882;-0.310;2023-07-02T04:46:21;9.02;;;4.78;;
57565;SDS011;63999;43.882;-0.310;2023-07-02T04:48:48;8.50;;;4.97;;
57565;SDS011;63999;43.882;-0.310;2023-07-02T04:51:13;7.10;;;4.97;;
57565;SDS011;63999;43.882;-0.310;2023-07-02T04:53:39;8.00;;;5.25;;
57565;SDS011;63999;43.882;-0.310;2023-07-02T04:56:05;6.88;;;5.18;;
57565;SDS011;63999;43.882;-0.310;2023-07-02T04:58:31;10.90;;;4.95;;
57565;SDS011;63999;43.882;-0.310;2023-07-02T05:00:56;7.93;;;4.78;;
57565;SDS011;63999;43.882;-0.310;2023-07-02T05:03:22;8.50;;;4.07;;
57565;SDS011;63999;43.882;-0.310;2023-07-02T05:05:48;6.90;;;4.72;;
57565;SDS011;63999;43.882;-0.310;2023-07-02T05:08:14;6.13;;;3.95;;
57565;SDS011;63999;43.882;-0.310;2023-07-02T05:10:39;7.85;;;4.40;;
57565;SDS011;63999;43.882;-0.310;2023-07-02T05:13:05;6.85;;;4.03;;
57565;SDS011;63999;43.882;-0.310;2023-07-02T05:15:31;5.45;;;4.43;;
57565;SDS011;63999;43.882;-0.310;2023-07-02T05:17:57;6.05;;;4.20;;
57565;SDS011;63999;43.882;-0.310;2023-07-02T05:20:22;7.63;;;4.20;;
57565;SDS011;63999;43.882;-0.310;2023-07-02T05:22:48;6.30;;;4.07;;
57565;SDS011;63999;43.882;-0.310;2023-07-02T05:25:14;5.63;;;4.38;;
57565;SDS011;63999;43.882;-0.310;2023-07-02T05:27:40;7.82;;;4.18;;
57565;SDS011;63999;43.882;-0.310;2023-07-02T05:30:06;5.40;;;3.33;;
57565;SDS011;63999;43.882;-0.310;2023-07-02T05:32:33;4.40;;;3.70;;
57565;SDS011;63999;43.882;-0.310;2023-07-02T05:34:59;4.75;;;3.58;;
57565;SDS011;63999;43.882;-0.310;2023-07-02T05:37:25;4.18;;;3.33;;
57565;SDS011;63999;43.882;-0.310;2023-07-02T05:39:50;4.63;;;3.28;;
57565;SDS011;63999;43.882;-0.310;2023-07-02T05:42:16;4.88;;;3.28;;
57565;SDS011;63999;43.882;-0.310;2023-07-02T05:44:42;4.45;;;3.55;;
57565;SDS011;63999;43.882;-0.310;2023-07-02T05:47:08;3.80;;;2.63;;
57565;SDS011;63999;43.882;-0.310;2023-07-02T05:49:34;3.60;;;2.58;;
57565;SDS011;63999;43.882;-0.310;2023-07-02T05:51:59;3.03;;;2.53;;
57565;SDS011;63999;43.882;-0.310;2023-07-02T05:54:25;3.65;;;2.08;;
57565;SDS011;63999;43.882;-0.310;2023-07-02T05:56:51;2.10;;;1.90;;
57565;SDS011;63999;43.882;-0.310;2023-07-02T05:59:17;2.25;;;1.95;;
57565;SDS011;63999;43.882;-0.310;2023-07-02T06:01:44;3.78;;;2.25;;
57565;SDS011;63999;43.882;-0.310;2023-07-02T06:04:09;3.15;;;2.20;;
57565;SDS011;63999;43.882;-0.310;2023-07-02T06:06:35;2.65;;;1.67;;
57565;SDS011;63999;43.882;-0.310;2023-07-02T06:09:01;3.25;;;1.83;;
57565;SDS011;63999;43.882;-0.310;2023-07-02T06:11:28;3.40;;;1.90;;
57565;SDS011;63999;43.882;-0.310;2023-07-02T06:13:53;2.30;;;1.90;;
57565;SDS011;63999;43.882;-0.310;2023-07-02T06:16:20;3.33;;;2.13;;
57565;SDS011;63999;43.882;-0.310;2023-07-02T06:18:46;3.63;;;1.83;;
57565;SDS011;63999;43.882;-0.310;2023-07-02T06:21:11;2.65;;;1.65;;
57565;SDS011;63999;43.882;-0.310;2023-07-02T06:23:43;2.53;;;1.85;;
57565;SDS011;63999;43.882;-0.310;2023-07-02T06:28:35;1.63;;;1.40;;
57565;SDS011;63999;43.882;-0.310;2023-07-02T06:31:01;1.83;;;1.40;;
57565;SDS011;63999;43.882;-0.310;2023-07-02T06:33:27;1.58;;;1.30;;
57565;SDS011;63999;43.882;-0.310;2023-07-02T06:35:52;2.65;;;1.25;;
57565;SDS011;63999;43.882;-0.310;2023-07-02T06:38:18;0.98;;;0.90;;
57565;SDS011;63999;43.882;-0.310;2023-07-02T06:40:44;2.33;;;1.08;;
57565;SDS011;63999;43.882;-0.310;2023-07-02T06:43:10;0.95;;;0.88;;
57565;SDS011;63999;43.882;-0.310;2023-07-02T06:45:35;0.90;;;0.80;;
57565;SDS011;63999;43.882;-0.310;2023-07-02T06:48:01;2.25;;;0.90;;
57565;SDS011;63999;43.882;-0.310;2023-07-02T06:50:27;0.77;;;0.65;;
57565;SDS011;63999;43.882;-0.310;2023-07-02T06:52:53;0.70;;;0.60;;
57565;SDS011;63999;43.882;-0.310;2023-07-02T06:55:19;1.10;;;0.70;;
57565;SDS011;63999;43.882;-0.310;2023-07-02T06:57:45;1.60;;;0.60;;
57565;SDS011;63999;43.882;-0.310;2023-07-02T07:00:11;1.65;;;0.73;;
57565;SDS011;63999;43.882;-0.310;2023-07-02T07:02:38;2.17;;;0.70;;
57565;SDS011;63999;43.882;-0.310;2023-07-02T07:05:04;0.80;;;0.60;;
57565;SDS011;63999;43.882;-0.310;2023-07-02T07:07:30;1.70;;;0.57;;
57565;SDS011;63999;43.882;-0.310;2023-07-02T07:09:56;0.90;;;0.50;;
57565;SDS011;63999;43.882;-0.310;2023-07-02T07:12:22;0.90;;;0.47;;
57565;SDS011;63999;43.882;-0.310;2023-07-02T07:14:48;0.50;;;0.50;;
57565;SDS011;63999;43.882;-0.310;2023-07-02T07:17:13;0.52;;;0.50;;
57565;SDS011;63999;43.882;-0.310;2023-07-02T07:19:39;0.82;;;0.40;;
57565;SDS011;63999;43.882;-0.310;2023-07-02T07:22:05;0.65;;;0.35;;
57565;SDS011;63999;43.882;-0.310;2023-07-02T07:24:31;0.45;;;0.45;;
57565;SDS011;63999;43.882;-0.310;2023-07-02T07:26:57;1.52;;;0.47;;
57565;SDS011;63999;43.882;-0.310;2023-07-02T07:29:23;0.80;;;0.40;;
57565;SDS011;63999;43.882;-0.310;2023-07-02T07:31:49;0.50;;;0.40;;
57565;SDS011;63999;43.882;-0.310;2023-07-02T07:34:15;1.60;;;0.40;;
57565;SDS011;63999;43.882;-0.310;2023-07-02T07:36:41;0.85;;;0.32;;
57565;SDS011;63999;43.882;-0.310;2023-07-02T07:39:07;0.63;;;0.30;;
57565;SDS011;63999;43.882;-0.310;2023-07-02T07:41:32;0.40;;;0.30;;
57565;SDS011;63999;43.882;-0.310;2023-07-02T07:43:58;1.98;;;0.25;;
57565;SDS011;63999;43.882;-0.310;2023-07-02T07:46:25;0.95;;;0.40;;
57565;SDS011;63999;43.882;-0.310;2023-07-02T07:48:50;0.68;;;0.40;;
57565;SDS011;63999;43.882;-0.310;2023-07-02T07:51:16;0.40;;;0.40;;
57565;SDS011;63999;43.882;-0.310;2023-07-02T07:53:42;0.63;;;0.30;;
57565;SDS011;63999;43.882;-0.310;2023-07-02T07:56:08;0.60;;;0.20;;
57565;SDS011;63999;43.882;-0.310;2023-07-02T07:58:34;0.45;;;0.45;;
57565;SDS011;63999;43.882;-0.310;2023-07-02T08:01:00;0.88;;;0.50;;
57565;SDS011;63999;43.882;-0.310;2023-07-02T08:03:26;1.02;;;0.30;;
57565;SDS011;63999;43.882;-0.310;2023-07-02T08:05:51;0.75;;;0.40;;
57565;SDS011;63999;43.882;-0.310;2023-07-02T08:08:17;0.40;;;0.40;;
57565;SDS011;63999;43.882;-0.310;2023-07-02T08:10:43;0.73;;;0.50;;
57565;SDS011;63999;43.882;-0.310;2023-07-02T08:13:10;0.32;;;0.30;;
57565;SDS011;63999;43.882;-0.310;2023-07-02T08:15:37;0.60;;;0.47;;
57565;SDS011;63999;43.882;-0.310;2023-07-02T08:18:03;0.95;;;0.60;;
57565;SDS011;63999;43.882;-0.310;2023-07-02T08:20:29;0.63;;;0.40;;
57565;SDS011;63999;43.882;-0.310;2023-07-02T08:22:55;0.80;;;0.40;;
57565;SDS011;63999;43.882;-0.310;2023-07-02T08:25:21;14.27;;;1.05;;
57565;SDS011;63999;43.882;-0.310;2023-07-02T08:27:47;1.52;;;0.60;;
57565;SDS011;63999;43.882;-0.310;2023-07-02T08:30:13;1.63;;;0.50;;
57565;SDS011;63999;43.882;-0.310;2023-07-02T08:32:38;3.08;;;0.82;;
57565;SDS011;63999;43.882;-0.310;2023-07-02T08:35:04;0.77;;;0.63;;
57565;SDS011;63999;43.882;-0.310;2023-07-02T08:37:30;0.98;;;0.85;;
57565;SDS011;63999;43.882;-0.310;2023-07-02T08:39:56;1.00;;;0.77;;
57565;SDS011;63999;43.882;-0.310;2023-07-02T08:42:21;0.85;;;0.40;;
57565;SDS011;63999;43.882;-0.310;2023-07-02T08:44:47;2.03;;;0.60;;
57565;SDS011;63999;43.882;-0.310;2023-07-02T08:47:13;1.35;;;0.70;;
57565;SDS011;63999;43.882;-0.310;2023-07-02T08:49:41;1.52;;;0.52;;
57565;SDS011;63999;43.882;-0.310;2023-07-02T08:52:07;1.65;;;0.60;;
57565;SDS011;63999;43.882;-0.310;2023-07-02T08:54:33;2.15;;;0.50;;
57565;SDS011;63999;43.882;-0.310;2023-07-02T08:56:59;1.08;;;0.63;;
57565;SDS011;63999;43.882;-0.310;2023-07-02T08:59:30;0.73;;;0.50;;
57565;SDS011;63999;43.882;-0.310;2023-07-02T09:01:56;0.63;;;0.50;;
57565;SDS011;63999;43.882;-0.310;2023-07-02T09:04:23;1.17;;;0.50;;
57565;SDS011;63999;43.882;-0.310;2023-07-02T09:07:11;0.98;;;0.63;;
57565;SDS011;63999;43.882;-0.310;2023-07-02T09:09:49;1.30;;;0.70;;
57565;SDS011;63999;43.882;-0.310;2023-07-02T09:12:48;0.70;;;0.50;;
57565;SDS011;63999;43.882;-0.310;2023-07-02T09:15:07;0.50;;;0.50;;
57565;SDS011;63999;43.882;-0.310;2023-07-02T09:17:34;1.50;;;0.60;;
57565;SDS011;63999;43.882;-0.310;2023-07-02T09:20:01;0.50;;;0.50;;
57565;SDS011;63999;43.882;-0.310;2023-07-02T09:22:32;0.63;;;0.40;;
57565;SDS011;63999;43.882;-0.310;2023-07-02T09:24:58;0.70;;;0.50;;
57565;SDS011;63999;43.882;-0.310;2023-07-02T09:27:38;0.95;;;0.50;;
57565;SDS011;63999;43.882;-0.310;2023-07-02T09:30:08;1.08;;;0.43;;
57565;SDS011;63999;43.882;-0.310;2023-07-02T09:32:36;2.35;;;0.60;;
57565;SDS011;63999;43.882;-0.310;2023-07-02T09:35:02;0.80;;;0.47;;
57565;SDS011;63999;43.882;-0.310;2023-07-02T09:37:30;2.33;;;0.60;;
57565;SDS011;63999;43.882;-0.310;2023-07-02T09:39:56;1.13;;;0.60;;
57565;SDS011;63999;43.882;-0.310;2023-07-02T09:42:24;0.68;;;0.60;;
57565;SDS011;63999;43.882;-0.310;2023-07-02T09:44:54;1.05;;;0.50;;
57565;SDS011;63999;43.882;-0.310;2023-07-02T09:47:21;0.85;;;0.40;;
57565;SDS011;63999;43.882;-0.310;2023-07-02T09:52:17;1.02;;;0.57;;
57565;SDS011;63999;43.882;-0.310;2023-07-02T09:54:44;1.05;;;0.68;;
57565;SDS011;63999;43.882;-0.310;2023-07-02T09:57:09;1.77;;;0.60;;
57565;SDS011;63999;43.882;-0.310;2023-07-02T09:59:35;1.38;;;0.70;;
57565;SDS011;63999;43.882;-0.310;2023-07-02T10:02:02;0.80;;;0.70;;
57565;SDS011;63999;43.882;-0.310;2023-07-02T10:04:38;1.60;;;0.70;;
57565;SDS011;63999;43.882;-0.310;2023-07-02T10:07:05;3.20;;;0.80;;
57565;SDS011;63999;43.882;-0.310;2023-07-02T10:09:34;0.77;;;0.60;;
57565;SDS011;63999;43.882;-0.310;2023-07-02T10:12:02;1.25;;;0.60;;
57565;SDS011;63999;43.882;-0.310;2023-07-02T10:14:44;2.15;;;0.80;;
57565;SDS011;63999;43.882;-0.310;2023-07-02T10:17:10;1.23;;;0.75;;
57565;SDS011;63999;43.882;-0.310;2023-07-02T10:19:51;2.15;;;0.70;;
57565;SDS011;63999;43.882;-0.310;2023-07-02T10:22:17;1.05;;;0.70;;
57565;SDS011;63999;43.882;-0.310;2023-07-02T10:24:50;2.05;;;0.82;;
57565;SDS011;63999;43.882;-0.310;2023-07-02T10:27:41;1.35;;;0.70;;
57565;SDS011;63999;43.882;-0.310;2023-07-02T10:32:34;2.03;;;0.68;;
57565;SDS011;63999;43.882;-0.310;2023-07-02T10:35:22;1.48;;;0.60;;
57565;SDS011;63999;43.882;-0.310;2023-07-02T10:37:47;15.65;;;11.73;;
57565;SDS011;63999;43.882;-0.310;2023-07-02T10:40:12;16.98;;;12.88;;
57565;SDS011;63999;43.882;-0.310;2023-07-02T10:42:48;9.95;;;6.65;;
57565;SDS011;63999;43.882;-0.310;2023-07-02T10:45:15;2.28;;;1.70;;
57565;SDS011;63999;43.882;-0.310;2023-07-02T10:47:42;2.97;;;2.67;;
57565;SDS011;63999;43.882;-0.310;2023-07-02T10:50:18;2.08;;;1.77;;
57565;SDS011;63999;43.882;-0.310;2023-07-02T10:52:45;1.95;;;1.48;;
57565;SDS011;63999;43.882;-0.310;2023-07-02T10:55:18;1.95;;;1.38;;
57565;SDS011;63999;43.882;-0.310;2023-07-02T10:57:45;2.92;;;0.95;;
57565;SDS011;63999;43.882;-0.310;2023-07-02T11:00:12;2.58;;;1.98;;
57565;SDS011;63999;43.882;-0.310;2023-07-02T11:02:38;1.92;;;1.38;;
57565;SDS011;63999;43.882;-0.310;2023-07-02T11:05:04;2.35;;;1.02;;
57565;SDS011;63999;43.882;-0.310;2023-07-02T11:07:43;1.95;;;1.00;;
57565;SDS011;63999;43.882;-0.310;2023-07-02T11:10:10;1.70;;;1.30;;
57565;SDS011;63999;43.882;-0.310;2023-07-02T11:12:42;1.52;;;0.90;;
57565;SDS011;63999;43.882;-0.310;2023-07-02T11:17:44;2.10;;;0.90;;
57565;SDS011;63999;43.882;-0.310;2023-07-02T11:20:11;2.78;;;1.17;;
57565;SDS011;63999;43.882;-0.310;2023-07-02T11:22:38;1.20;;;0.95;;
57565;SDS011;63999;43.882;-0.310;2023-07-02T11:25:17;1.65;;;1.00;;
57565;SDS011;63999;43.882;-0.310;2023-07-02T11:27:47;1.20;;;0.80;;
57565;SDS011;63999;43.882;-0.310;2023-07-02T11:30:12;7.68;;;1.70;;
57565;SDS011;63999;43.882;-0.310;2023-07-02T11:35:17;1.80;;;1.10;;
57565;SDS011;63999;43.882;-0.310;2023-07-02T11:37:43;1.88;;;1.00;;
57565;SDS011;63999;43.882;-0.310;2023-07-02T11:40:10;2.08;;;1.00;;
57565;SDS011;63999;43.882;-0.310;2023-07-02T11:42:36;1.90;;;1.27;;
57565;SDS011;63999;43.882;-0.310;2023-07-02T11:45:06;2.33;;;0.95;;
57565;SDS011;63999;43.882;-0.310;2023-07-02T11:47:33;1.98;;;1.10;;
57565;SDS011;63999;43.882;-0.310;2023-07-02T11:50:01;2.08;;;1.15;;
57565;SDS011;63999;43.882;-0.310;2023-07-02T11:52:33;2.00;;;1.20;;
57565;SDS011;63999;43.882;-0.310;2023-07-02T11:54:59;3.00;;;1.02;;
57565;SDS011;63999;43.882;-0.310;2023-07-02T11:57:26;1.95;;;1.02;;
57565;SDS011;63999;43.882;-0.310;2023-07-02T11:59:52;2.13;;;1.00;;
57565;SDS011;63999;43.882;-0.310;2023-07-02T12:02:18;1.67;;;1.00;;
57565;SDS011;63999;43.882;-0.310;2023-07-02T12:04:45;2.10;;;0.98;;
57565;SDS011;63999;43.882;-0.310;2023-07-02T12:07:11;2.38;;;1.20;;
57565;SDS011;63999;43.882;-0.310;2023-07-02T12:09:38;1.20;;;0.90;;
57565;SDS011;63999;43.882;-0.310;2023-07-02T12:12:04;1.83;;;0.77;;
57565;SDS011;63999;43.882;-0.310;2023-07-02T12:14:30;1.95;;;0.98;;
57565;SDS011;63999;43.882;-0.310;2023-07-02T12:16:56;2.35;;;1.10;;
57565;SDS011;63999;43.882;-0.310;2023-07-02T12:19:23;1.17;;;0.80;;
57565;SDS011;63999;43.882;-0.310;2023-07-02T12:21:50;1.92;;;0.82;;
57565;SDS011;63999;43.882;-0.310;2023-07-02T12:24:17;1.15;;;0.80;;
57565;SDS011;63999;43.882;-0.310;2023-07-02T12:26:44;1.55;;;0.88;;
57565;SDS011;63999;43.882;-0.310;2023-07-02T12:29:10;1.65;;;0.82;;
57565;SDS011;63999;43.882;-0.310;2023-07-02T12:31:36;1.50;;;0.88;;
57565;SDS011;63999;43.882;-0.310;2023-07-02T12:34:02;1.63;;;0.73;;
57565;SDS011;63999;43.882;-0.310;2023-07-02T12:36:28;1.58;;;0.80;;
57565;SDS011;63999;43.882;-0.310;2023-07-02T12:38:54;1.30;;;0.70;;
57565;SDS011;63999;43.882;-0.310;2023-07-02T12:41:19;2.42;;;0.90;;
57565;SDS011;63999;43.882;-0.310;2023-07-02T12:43:45;1.83;;;0.80;;
57565;SDS011;63999;43.882;-0.310;2023-07-02T12:46:11;2.17;;;1.02;;
57565;SDS011;63999;43.882;-0.310;2023-07-02T12:48:37;2.05;;;1.20;;
57565;SDS011;63999;43.882;-0.310;2023-07-02T12:51:02;1.27;;;1.00;;
57565;SDS011;63999;43.882;-0.310;2023-07-02T12:53:28;1.52;;;0.77;;
57565;SDS011;63999;43.882;-0.310;2023-07-02T12:55:54;2.75;;;0.95;;
57565;SDS011;63999;43.882;-0.310;2023-07-02T12:58:20;1.35;;;0.90;;
57565;SDS011;63999;43.882;-0.310;2023-07-02T13:00:46;1.98;;;0.90;;
57565;SDS011;63999;43.882;-0.310;2023-07-02T13:03:12;4.65;;;0.95;;
57565;SDS011;63999;43.882;-0.310;2023-07-02T13:05:38;2.10;;;1.00;;
57565;SDS011;63999;43.882;-0.310;2023-07-02T13:08:10;1.53;;;0.93;;
57565;SDS011;63999;43.882;-0.310;2023-07-02T13:10:40;1.00;;;0.90;;
57565;SDS011;63999;43.882;-0.310;2023-07-02T13:13:06;1.58;;;1.20;;
57565;SDS011;63999;43.882;-0.310;2023-07-02T13:15:34;2.28;;;1.15;;
57565;SDS011;63999;43.882;-0.310;2023-07-02T13:18:07;1.98;;;1.10;;
57565;SDS011;63999;43.882;-0.310;2023-07-02T13:20:33;2.25;;;1.63;;
57565;SDS011;63999;43.882;-0.310;2023-07-02T13:23:02;1.65;;;1.30;;
57565;SDS011;63999;43.882;-0.310;2023-07-02T13:25:50;1.98;;;1.20;;
57565;SDS011;63999;43.882;-0.310;2023-07-02T13:28:19;2.35;;;1.17;;
57565;SDS011;63999;43.882;-0.310;2023-07-02T13:30:46;2.97;;;1.30;;
57565;SDS011;63999;43.882;-0.310;2023-07-02T13:33:14;2.90;;;1.35;;
57565;SDS011;63999;43.882;-0.310;2023-07-02T13:35:41;2.03;;;1.42;;
57565;SDS011;63999;43.882;-0.310;2023-07-02T13:38:09;1.75;;;1.27;;
57565;SDS011;63999;43.882;-0.310;2023-07-02T13:40:36;2.78;;;1.30;;
57565;SDS011;63999;43.882;-0.310;2023-07-02T13:43:04;1.85;;;1.30;;
57565;SDS011;63999;43.882;-0.310;2023-07-02T13:45:30;3.00;;;1.58;;
57565;SDS011;63999;43.882;-0.310;2023-07-02T13:47:57;3.05;;;1.63;;
57565;SDS011;63999;43.882;-0.310;2023-07-02T13:50:24;4.15;;;1.55;;
57565;SDS011;63999;43.882;-0.310;2023-07-02T13:52:53;2.53;;;1.60;;
57565;SDS011;63999;43.882;-0.310;2023-07-02T13:55:20;3.13;;;1.40;;
57565;SDS011;63999;43.882;-0.310;2023-07-02T13:57:53;2.97;;;1.58;;
57565;SDS011;63999;43.882;-0.310;2023-07-02T14:00:20;2.40;;;1.55;;
57565;SDS011;63999;43.882;-0.310;2023-07-02T14:02:46;2.40;;;1.60;;
57565;SDS011;63999;43.882;-0.310;2023-07-02T14:05:12;4.90;;;1.60;;
57565;SDS011;63999;43.882;-0.310;2023-07-02T14:07:38;2.63;;;1.42;;
57565;SDS011;63999;43.882;-0.310;2023-07-02T14:10:03;3.45;;;1.80;;
57565;SDS011;63999;43.882;-0.310;2023-07-02T14:12:30;4.40;;;2.00;;
57565;SDS011;63999;43.882;-0.310;2023-07-02T14:14:55;3.10;;;1.92;;
57565;SDS011;63999;43.882;-0.310;2023-07-02T14:17:21;3.63;;;2.15;;
57565;SDS011;63999;43.882;-0.310;2023-07-02T14:19:47;3.03;;;1.95;;
57565;SDS011;63999;43.882;-0.310;2023-07-02T14:22:12;2.33;;;2.10;;
57565;SDS011;63999;43.882;-0.310;2023-07-02T14:24:38;3.30;;;2.08;;
57565;SDS011;63999;43.882;-0.310;2023-07-02T14:27:04;3.30;;;2.10;;
57565;SDS011;63999;43.882;-0.310;2023-07-02T14:29:30;3.60;;;2.00;;
57565;SDS011;63999;43.882;-0.310;2023-07-02T14:31:56;5.18;;;2.38;;
57565;SDS011;63999;43.882;-0.310;2023-07-02T14:34:21;3.05;;;2.42;;
57565;SDS011;63999;43.882;-0.310;2023-07-02T14:36:47;3.97;;;2.15;;
57565;SDS011;63999;43.882;-0.310;2023-07-02T14:39:13;4.55;;;2.75;;
57565;SDS011;63999;43.882;-0.310;2023-07-02T14:41:39;4.53;;;2.40;;
57565;SDS011;63999;43.882;-0.310;2023-07-02T14:44:04;4.50;;;2.50;;